Time;durP1;ratioP1;P1;durP2;ratioP2;P2;SDS_P1;SDS_P2;PMS_P1;PMS_P2;Temp;Humidity;BMP_temperature;BMP_pressure;BME280_temperature;BME280_humidity;BME280_pressure;Samples;Min_cycle;Max_cycle;Signal;HPM_P1;HPM_P2
2021/04/18 00:01:26;;;;;;;10.20;5.00;;;;;;;4.36;48.12;102363.91;5019021;28;20037;-67
2021/04/18 00:03:51;;;;;;;11.15;5.57;;;;;;;4.40;47.75;102371.72;5017821;28;20071;-66
2021/04/18 00:06:17;;;;;;;10.15;5.03;;;;;;;4.34;48.51;102373.38;5020358;28;20111;-68
2021/04/18 00:08:44;;;;;;;7.25;4.55;;;;;;;4.41;48.11;102357.06;5021371;28;20475;-69
2021/04/18 00:11:10;;;;;;;12.07;5.57;;;;;;;4.29;48.35;102365.56;5019879;28;20048;-67
2021/04/18 00:13:36;;;;;;;9.23;4.97;;;;;;;4.24;48.76;102367.25;5018274;28;20152;-68
2021/04/18 00:16:01;;;;;;;10.93;4.45;;;;;;;4.38;48.81;102373.41;5014347;28;20156;-68
2021/04/18 00:18:27;;;;;;;6.45;3.97;;;;;;;4.46;48.69;102364.88;5003237;28;20073;-66
2021/04/18 00:20:52;;;;;;;8.60;4.53;;;;;;;4.59;48.39;102357.22;5017327;28;20609;-66
2021/04/18 00:23:18;;;;;;;9.43;4.93;;;;;;;4.58;48.19;102364.97;5019520;28;20087;-67
2021/04/18 00:25:43;;;;;;;7.65;3.75;;;;;;;4.48;48.05;102358.84;5019324;28;20034;-68
2021/04/18 00:28:10;;;;;;;9.77;4.18;;;;;;;4.51;48.18;102353.69;5020708;28;20066;-67
2021/04/18 00:30:36;;;;;;;9.77;3.63;;;;;;;4.35;48.33;102352.69;5021551;28;20074;-67
2021/04/18 00:33:01;;;;;;;7.85;3.92;;;;;;;4.50;48.19;102351.06;5020990;28;20034;-67
2021/04/18 00:35:28;;;;;;;9.85;5.43;;;;;;;4.41;48.59;102349.31;5024714;28;20392;-66
2021/04/18 00:37:54;;;;;;;9.38;4.60;;;;;;;4.46;47.90;102344.16;5019069;28;20049;-67
2021/04/18 00:40:21;;;;;;;9.65;5.03;;;;;;;4.37;48.44;102350.13;5018376;28;20037;-67
2021/04/18 00:42:47;;;;;;;10.80;5.75;;;;;;;4.49;48.40;102345.03;5019693;28;20088;-67
2021/04/18 00:45:13;;;;;;;16.20;10.85;;;;;;;4.49;48.20;102349.34;5020368;28;20510;-67
2021/04/18 00:47:42;;;;;;;17.77;10.52;;;;;;;4.30;48.98;102344.00;5027313;28;20025;-67
2021/04/18 00:50:13;;;;;;;17.85;10.38;;;;;;;4.40;49.08;102342.38;5020218;28;20045;-66
2021/04/18 00:52:39;;;;;;;16.75;8.50;;;;;;;4.42;48.75;102344.13;5023186;28;20029;-69
2021/04/18 00:55:06;;;;;;;15.00;8.00;;;;;;;4.41;48.84;102342.41;5027357;28;20505;-67
2021/04/18 00:57:32;;;;;;;14.30;6.80;;;;;;;4.52;48.76;102334.72;5022833;28;20025;-66
2021/04/18 01:00:00;;;;;;;10.57;5.63;;;;;;;4.70;47.82;102333.13;5020788;28;20180;-68
2021/04/18 01:02:26;;;;;;;6.93;3.67;;;;;;;4.66;48.43;102331.38;5023651;28;20030;-67
2021/04/18 01:04:52;;;;;;;9.10;3.72;;;;;;;4.67;47.83;102328.78;5006683;28;20045;-66
2021/04/18 01:07:18;;;;;;;7.32;4.05;;;;;;;4.64;47.77;102332.22;5022378;28;20040;-67
2021/04/18 01:09:44;;;;;;;20.63;3.63;;;;;;;4.32;48.75;102329.38;5023041;28;20041;-68
2021/04/18 01:12:10;;;;;;;8.93;4.18;;;;;;;4.51;48.18;102319.16;5022474;28;20056;-68
2021/04/18 01:14:36;;;;;;;7.28;3.60;;;;;;;4.56;47.61;102310.56;5025006;28;20088;-66
2021/04/18 01:17:02;;;;;;;7.72;3.80;;;;;;;4.51;48.13;102321.75;5021532;28;20033;-67
2021/04/18 01:19:28;;;;;;;10.23;4.20;;;;;;;4.54;47.78;102316.59;5024256;28;20106;-67
2021/04/18 01:21:53;;;;;;;10.40;3.65;;;;;;;4.60;47.40;102320.09;5018055;28;20104;-68
2021/04/18 01:24:35;;;;;;;;;;;;;;;4.37;47.87;102322.50;5020197;28;20059;-66
2021/04/18 01:27:24;;;;;;;6.57;3.47;;;;;;;4.49;47.76;102313.97;5008811;28;19920;-68
2021/04/18 01:29:51;;;;;;;9.40;3.35;;;;;;;4.40;47.79;102319.94;5020955;28;20170;-67
2021/04/18 01:32:20;;;;;;;8.13;3.40;;;;;;;4.50;47.74;102320.00;5021851;28;20036;-66
2021/04/18 01:34:47;;;;;;;9.27;3.63;;;;;;;4.43;47.72;102311.31;5023242;28;20483;-69
2021/04/18 01:37:14;;;;;;;11.65;3.58;;;;;;;4.48;47.31;102316.56;5019656;28;20034;-67
2021/04/18 01:39:40;;;;;;;7.55;3.65;;;;;;;4.45;47.19;102311.34;5025476;28;20709;-66
2021/04/18 01:42:07;;;;;;;4.53;2.88;;;;;;;4.49;47.25;102302.75;5022515;28;20041;-66
2021/04/18 01:44:32;;;;;;;6.50;2.75;;;;;;;4.37;46.97;102299.22;5020946;28;20060;-70
2021/04/18 01:46:58;;;;;;;13.35;4.30;;;;;;;4.24;46.80;102293.91;5019656;28;20073;-67
2021/04/18 01:49:24;;;;;;;6.93;3.67;;;;;;;4.09;47.04;102303.25;5027835;28;20446;-66
2021/04/18 01:51:49;;;;;;;6.13;2.95;;;;;;;4.10;47.16;102305.00;5020450;28;20551;-69
2021/04/18 01:54:15;;;;;;;7.10;2.97;;;;;;;4.01;47.25;102307.50;5017970;28;20518;-68
2021/04/18 01:56:42;;;;;;;6.30;3.90;;;;;;;4.04;47.37;102299.75;5020315;28;20471;-66
2021/04/18 01:59:10;;;;;;;5.32;3.35;;;;;;;3.94;47.45;102292.72;5017056;28;20025;-66
2021/04/18 02:01:42;;;;;;;7.68;3.40;;;;;;;3.93;47.35;102293.59;5018043;28;20032;-65
2021/04/18 02:04:23;;;;;;;7.47;3.83;;;;;;;3.80;47.42;102290.00;5010779;28;20056;-67
2021/04/18 02:06:54;;;;;;;5.03;3.25;;;;;;;3.71;47.54;102298.53;5016045;28;20041;-66
2021/04/18 02:09:20;;;;;;;13.52;3.90;;;;;;;3.77;47.62;102295.16;5037306;28;20086;-67
2021/04/18 02:11:46;;;;;;;7.32;3.42;;;;;;;3.34;48.64;102300.69;5010290;28;20045;-69
2021/04/18 02:14:14;;;;;;;10.20;3.67;;;;;;;3.69;47.57;102301.94;5020900;28;20037;-67
2021/04/18 02:16:39;;;;;;;8.77;4.10;;;;;;;3.64;47.59;102299.31;5026248;28;20667;-66
2021/04/18 02:19:10;;;;;;;8.65;4.40;;;;;;;3.59;47.62;102304.44;5017571;28;20026;-67
2021/04/18 02:21:39;;;;;;;8.88;3.33;;;;;;;3.39;48.02;102309.34;5019536;28;20024;-66
2021/04/18 02:24:05;;;;;;;7.15;3.65;;;;;;;3.55;48.17;102301.78;5017918;28;20659;-66
2021/04/18 02:26:31;;;;;;;5.28;3.15;;;;;;;3.57;48.24;102313.03;5017163;28;20038;-67
2021/04/18 02:28:57;;;;;;;10.38;3.55;;;;;;;3.67;48.21;102309.72;5015407;28;20022;-67
2021/04/18 02:31:24;;;;;;;11.57;4.15;;;;;;;3.58;48.79;102310.47;5011499;28;20522;-68
2021/04/18 02:33:49;;;;;;;6.40;3.85;;;;;;;3.78;48.27;102307.22;5007246;28;20073;-68
2021/04/18 02:36:16;;;;;;;8.25;3.53;;;;;;;3.81;47.68;102307.28;5021752;28;20034;-66
2021/04/18 02:38:42;;;;;;;8.80;3.30;;;;;;;3.71;48.04;102300.25;5033067;28;20032;-66
2021/04/18 02:41:10;;;;;;;6.95;3.40;;;;;;;3.68;48.35;102302.81;5020893;28;20061;-67
2021/04/18 02:43:36;;;;;;;5.93;3.40;;;;;;;3.74;48.06;102308.06;5023447;28;20465;-68
2021/04/18 02:46:02;;;;;;;7.32;2.97;;;;;;;3.70;48.16;102308.88;5019316;28;20037;-67
2021/04/18 02:48:29;;;;;;;10.23;3.25;;;;;;;3.56;48.69;102312.16;5020882;28;20040;-67
2021/04/18 02:50:55;;;;;;;4.93;2.90;;;;;;;3.67;48.61;102311.41;5020337;28;20057;-66
2021/04/18 02:53:21;;;;;;;8.45;3.38;;;;;;;3.73;48.79;102316.66;5017977;28;20036;-68
2021/04/18 02:55:46;;;;;;;9.50;4.20;;;;;;;3.75;49.06;102308.06;5018838;28;20040;-68
2021/04/18 02:58:24;;;;;;;9.73;4.13;;;;;;;3.91;48.00;102298.75;5021994;28;20026;-66
2021/04/18 03:00:51;;;;;;;9.55;3.78;;;;;;;3.93;48.28;102297.03;5017290;28;20109;-67
2021/04/18 03:03:17;;;;;;;7.82;3.30;;;;;;;3.91;48.47;102300.47;5018252;28;20125;-66
2021/04/18 03:05:44;;;;;;;8.68;3.95;;;;;;;3.89;48.57;102300.44;5019292;28;20056;-67
2021/04/18 03:08:10;;;;;;;7.50;3.38;;;;;;;4.05;48.28;102290.25;5022884;28;20574;-67
2021/04/18 03:10:36;;;;;;;6.72;3.67;;;;;;;4.11;48.17;102296.38;5004331;28;20040;-66
2021/04/18 03:13:04;;;;;;;10.18;3.65;;;;;;;4.14;48.13;102292.94;5004434;28;20037;-68
2021/04/18 03:15:32;;;;;;;7.78;3.03;;;;;;;4.10;48.06;102299.81;5021839;28;20111;-66
2021/04/18 03:18:02;;;;;;;13.95;4.53;;;;;;;4.32;47.67;102294.81;5018007;28;20033;-66
2021/04/18 03:20:29;;;;;;;8.82;3.72;;;;;;;4.34;47.69;102287.94;5009491;28;20034;-68
2021/04/18 03:22:58;;;;;;;13.05;5.30;;;;;;;4.35;47.74;102287.97;5020338;28;20061;-66
2021/04/18 03:25:24;;;;;;;7.95;3.60;;;;;;;4.50;47.51;102283.75;5020927;28;20054;-67
2021/04/18 03:27:50;;;;;;;5.88;3.00;;;;;;;4.51;47.58;102285.50;5023546;28;20029;-67
2021/04/18 03:30:24;;;;;;;8.68;4.07;;;;;;;4.65;47.63;102283.88;5018125;28;20041;-66
2021/04/18 03:32:56;;;;;;;9.35;4.43;;;;;;;4.58;47.85;102284.69;5026946;28;20060;-67
2021/04/18 03:35:23;;;;;;;11.30;4.32;;;;;;;4.60;47.89;102285.56;5020763;28;20531;-67
2021/04/18 03:37:51;;;;;;;10.60;4.05;;;;;;;4.61;47.96;102288.19;5033789;28;20033;-67
2021/04/18 03:40:18;;;;;;;9.88;4.18;;;;;;;4.67;48.03;102282.16;5018126;28;20093;-69
2021/04/18 03:42:45;;;;;;;10.23;4.57;;;;;;;4.65;48.25;102273.53;5018367;28;20024;-68
2021/04/18 03:45:11;;;;;;;8.25;5.25;;;;;;;4.77;47.88;102270.16;5018518;28;20030;-69
2021/04/18 03:47:40;;;;;;;8.63;4.07;;;;;;;4.81;48.05;102270.19;5023594;28;20033;-66
2021/04/18 03:50:09;;;;;;;16.77;4.75;;;;;;;4.77;48.30;102268.44;5002708;28;20034;-66
2021/04/18 03:52:55;;;;;;;10.23;4.35;;;;;;;4.82;48.37;102266.72;5003877;28;20038;-66
2021/04/18 03:55:23;;;;;;;12.52;4.25;;;;;;;4.91;48.35;102272.88;5021058;28;20033;-67
2021/04/18 03:57:50;;;;;;;7.82;4.43;;;;;;;5.02;48.32;102271.22;5006470;28;20037;-68
2021/04/18 04:00:17;;;;;;;8.02;4.53;;;;;;;5.09;47.92;102274.69;5021233;28;20033;-67
2021/04/18 04:02:43;;;;;;;9.10;5.15;;;;;;;5.09;47.78;102264.34;5026208;28;20101;-67
2021/04/18 04:05:13;;;;;;;6.22;4.35;;;;;;;5.12;47.20;102267.78;5030103;28;20423;-67
2021/04/18 04:07:39;;;;;;;10.93;3.70;;;;;;;5.12;47.33;102262.59;5026725;28;20029;-67
2021/04/18 04:10:05;;;;;;;10.55;4.03;;;;;;;4.96;47.53;102263.41;5021451;28;20038;-68
2021/04/18 04:12:33;;;;;;;9.60;3.95;;;;;;;4.85;47.61;102255.53;5024511;28;20034;-68
2021/04/18 04:14:59;;;;;;;12.68;4.43;;;;;;;4.82;47.63;102263.28;5023403;28;20041;-67
2021/04/18 04:17:28;;;;;;;9.00;4.40;;;;;;;4.73;47.80;102265.81;5014569;28;20032;-66
2021/04/18 04:20:17;;;;;;;6.40;3.47;;;;;;;4.72;47.93;102275.31;5021677;28;20053;-67
2021/04/18 04:22:58;;;;;;;8.43;4.70;;;;;;;4.79;47.67;102271.06;5031318;28;20046;-69
2021/04/18 04:25:23;;;;;;;9.95;5.30;;;;;;;4.72;47.74;102264.97;5028899;28;20064;-67
2021/04/18 04:27:49;;;;;;;12.27;5.32;;;;;;;4.61;48.18;102266.59;5030204;28;20033;-67
2021/04/18 04:30:15;;;;;;;10.88;4.75;;;;;;;4.67;48.42;102260.59;5025527;28;20411;-67
2021/04/18 04:32:41;;;;;;;13.20;5.28;;;;;;;4.69;48.71;102269.25;5028458;28;20708;-66
2021/04/18 04:35:07;;;;;;;12.32;5.63;;;;;;;4.75;49.06;102259.78;5032339;28;20042;-67
2021/04/18 04:37:32;;;;;;;10.65;4.68;;;;;;;4.88;48.87;102265.06;5035456;28;20033;-66
2021/04/18 04:39:58;;;;;;;7.30;4.30;;;;;;;4.86;48.90;102262.44;5038047;28;20048;-66
2021/04/18 04:42:23;;;;;;;9.93;4.93;;;;;;;4.81;49.14;102275.38;5026123;28;20029;-67
2021/04/18 04:44:49;;;;;;;12.13;4.85;;;;;;;4.84;49.11;102270.19;5030056;28;20172;-66
2021/04/18 04:47:14;;;;;;;6.28;4.53;;;;;;;4.78;49.21;102264.97;5027405;28;20069;-68
2021/04/18 04:49:40;;;;;;;12.70;5.35;;;;;;;4.79;49.41;102273.63;5028008;28;20028;-69
2021/04/18 04:52:09;;;;;;;10.38;5.68;;;;;;;4.86;49.64;102266.78;5022528;28;20076;-67
2021/04/18 04:54:34;;;;;;;10.70;5.53;;;;;;;4.92;49.95;102272.91;5026337;28;20056;-67
2021/04/18 04:57:00;;;;;;;10.57;5.65;;;;;;;5.05;49.90;102284.16;5025868;28;20037;-67
2021/04/18 04:59:25;;;;;;;11.38;5.68;;;;;;;5.15;49.61;102275.59;5031663;28;20692;-68
2021/04/18 05:01:51;;;;;;;9.82;5.18;;;;;;;5.43;49.18;102280.91;5030312;28;20065;-67
2021/04/18 05:04:17;;;;;;;9.82;5.30;;;;;;;5.57;48.79;102279.25;5023795;28;20035;-68
2021/04/18 05:06:42;;;;;;;10.85;5.30;;;;;;;5.68;48.50;102292.22;5028354;28;20103;-68
2021/04/18 05:09:08;;;;;;;9.65;5.20;;;;;;;5.79;48.51;102294.84;5024572;28;20041;-67
2021/04/18 05:11:33;;;;;;;9.02;4.75;;;;;;;5.95;47.79;102300.94;5024122;28;20030;-68
2021/04/18 05:13:59;;;;;;;7.90;4.75;;;;;;;5.83;47.85;102297.47;5022255;28;20117;-67
2021/04/18 05:16:24;;;;;;;13.68;4.90;;;;;;;5.95;47.47;102301.84;5026114;28;20099;-68
2021/04/18 05:18:50;;;;;;;13.77;4.88;;;;;;;5.66;48.85;102289.66;5021118;28;20045;-66
2021/04/18 05:21:16;;;;;;;9.85;5.13;;;;;;;6.13;47.45;102305.31;5020183;28;20060;-70
2021/04/18 05:23:41;;;;;;;9.30;5.40;;;;;;;6.18;47.18;102295.81;5020428;28;20099;-67
2021/04/18 05:26:07;;;;;;;8.50;4.53;;;;;;;6.45;47.09;102301.03;5023431;28;20109;-68
2021/04/18 05:28:32;;;;;;;8.27;4.32;;;;;;;6.48;47.08;102293.28;5038678;28;20032;-67
2021/04/18 05:30:58;;;;;;;11.27;4.72;;;;;;;6.70;46.73;102299.28;5016823;28;20562;-67
2021/04/18 05:33:24;;;;;;;10.35;4.30;;;;;;;6.85;46.79;102298.41;5026093;28;20043;-68
2021/04/18 05:35:50;;;;;;;7.68;3.90;;;;;;;6.94;46.05;102299.28;5008575;28;20043;-68
2021/04/18 05:38:16;;;;;;;14.23;4.80;;;;;;;6.79;46.57;102294.97;5019534;28;20777;-68
2021/04/18 05:40:42;;;;;;;7.65;3.63;;;;;;;6.79;47.02;102302.75;5018891;28;20029;-68
2021/04/18 05:43:09;;;;;;;10.13;4.78;;;;;;;6.91;46.40;102293.22;5022645;28;20661;-66
2021/04/18 05:45:35;;;;;;;10.88;5.10;;;;;;;6.77;47.25;102300.16;5020776;28;20022;-67
2021/04/18 05:48:00;;;;;;;10.23;4.28;;;;;;;6.93;46.14;102300.13;5021217;28;20047;-70
2021/04/18 05:50:26;;;;;;;12.90;3.85;;;;;;;7.31;45.61;102293.09;5019283;28;20088;-66
2021/04/18 05:52:51;;;;;;;8.75;3.83;;;;;;;7.45;45.40;102294.78;5025954;28;20121;-67
2021/04/18 05:55:17;;;;;;;6.57;4.18;;;;;;;7.41;45.37;102295.66;5021722;28;20080;-68
2021/04/18 05:57:42;;;;;;;8.50;3.75;;;;;;;7.58;44.82;102296.50;5026662;28;20029;-66
2021/04/18 06:00:08;;;;;;;7.57;3.70;;;;;;;7.50;45.45;102303.44;5019924;28;20045;-65
2021/04/18 06:02:41;;;;;;;8.75;3.75;;;;;;;7.91;44.30;102299.78;5021232;28;20038;-67
2021/04/18 06:05:07;;;;;;;8.88;3.92;;;;;;;8.00;44.27;102293.66;5020271;28;20482;-68
2021/04/18 06:07:32;;;;;;;7.70;2.95;;;;;;;8.91;42.67;102286.81;5022141;28;20421;-67
2021/04/18 06:09:58;;;;;;;9.43;4.00;;;;;;;10.38;39.56;102293.59;5020779;28;20065;-67
2021/04/18 06:12:23;;;;;;;6.28;3.05;;;;;;;11.00;38.57;102278.56;5027781;28;20077;-69
2021/04/18 06:14:49;;;;;;;10.00;3.83;;;;;;;11.42;36.42;102285.59;5018834;28;20434;-66
2021/04/18 06:17:14;;;;;;;5.05;3.13;;;;;;;13.23;34.50;102278.50;5017177;28;20651;-68
2021/04/18 06:19:40;;;;;;;5.05;3.20;;;;;;;14.50;30.79;102291.19;5020060;28;20036;-68
2021/04/18 06:22:05;;;;;;;3.28;2.38;;;;;;;16.13;28.74;102277.22;5019847;28;20048;-68
2021/04/18 06:24:31;;;;;;;10.85;3.28;;;;;;;16.82;26.48;102277.81;5019017;28;20064;-65
2021/04/18 06:26:56;;;;;;;11.70;2.50;;;;;;;17.75;26.36;102281.50;5020178;28;20033;-67
2021/04/18 06:29:21;;;;;;;6.78;2.40;;;;;;;18.61;24.80;102275.44;5020455;28;20025;-68
2021/04/18 06:31:47;;;;;;;7.60;2.80;;;;;;;17.48;25.15;102281.91;5020024;28;20159;-67
2021/04/18 06:34:13;;;;;;;2.45;2.10;;;;;;;15.65;27.65;102286.19;5021367;28;20043;-67
2021/04/18 06:36:39;;;;;;;7.32;2.22;;;;;;;14.58;29.67;102285.69;5022633;28;20037;-66
2021/04/18 06:39:04;;;;;;;8.93;3.10;;;;;;;14.94;29.36;102281.75;5018210;28;20108;-68
2021/04/18 06:41:34;;;;;;;3.22;2.00;;;;;;;15.73;27.80;102284.13;5019942;28;20033;-68
2021/04/18 06:44:01;;;;;;;3.85;1.77;;;;;;;15.84;27.08;102281.91;5023868;28;20091;-66
2021/04/18 06:46:26;;;;;;;4.30;1.90;;;;;;;16.48;26.35;102277.53;5023927;28;20041;-67
2021/04/18 06:48:52;;;;;;;2.30;1.77;;;;;;;18.54;24.02;102283.78;5024153;28;20034;-68
2021/04/18 06:51:19;;;;;;;3.75;2.00;;;;;;;19.17;22.17;102272.53;5024547;28;20045;-65
2021/04/18 06:53:46;;;;;;;8.13;3.40;;;;;;;19.74;21.39;102278.19;5018869;28;20051;-66
2021/04/18 06:56:12;;;;;;;2.65;1.63;;;;;;;18.72;22.44;102281.97;5021150;28;20044;-68
2021/04/18 06:58:37;;;;;;;4.68;1.70;;;;;;;19.37;21.62;102280.25;5021166;28;20024;-68
2021/04/18 07:01:04;;;;;;;5.45;2.08;;;;;;;19.98;21.08;102275.94;5021821;28;20038;-67
2021/04/18 07:03:29;;;;;;;2.38;1.58;;;;;;;19.40;20.08;102280.06;5021245;28;20029;-67
2021/04/18 07:05:57;;;;;;;5.32;1.85;;;;;;;19.61;20.40;102277.19;5015420;28;20100;-68
2021/04/18 07:08:32;;;;;;;4.43;1.58;;;;;;;19.98;19.45;102275.09;5007858;28;20075;-68
2021/04/18 07:11:15;;;;;;;3.70;1.30;;;;;;;20.21;20.29;102276.41;5018105;28;20590;-68
2021/04/18 07:13:43;;;;;;;3.88;1.50;;;;;;;19.24;20.59;102280.06;5016278;28;20087;-69
2021/04/18 07:16:37;;;;;;;2.80;1.30;;;;;;;17.35;22.03;102286.84;5013734;28;20032;-67
2021/04/18 07:19:03;;;;;;;4.50;1.67;;;;;;;17.85;22.75;102288.94;5005561;28;20403;-68
2021/04/18 07:21:46;;;;;;;6.70;1.40;;;;;;;19.34;20.74;102274.25;5023229;28;20029;-67
2021/04/18 07:24:12;;;;;;;6.13;2.22;;;;;;;20.21;19.58;102279.91;5017460;28;20042;-67
2021/04/18 07:26:38;;;;;;;2.97;1.10;;;;;;;21.12;18.97;102277.09;5018311;28;20524;-66
2021/04/18 07:29:14;;;;;;;3.65;1.23;;;;;;;21.32;18.32;102271.34;5019318;28;20038;-68
2021/04/18 07:31:40;;;;;;;6.40;1.42;;;;;;;21.08;18.77;102273.75;5017062;28;20126;-69
2021/04/18 07:34:13;;;;;;;4.50;1.45;;;;;;;21.30;19.19;102275.91;5020774;28;20068;-69
2021/04/18 07:36:45;;;;;;;7.18;1.70;;;;;;;22.13;18.00;102278.53;5021787;28;20060;-67
2021/04/18 07:39:13;;;;;;;3.03;1.27;;;;;;;22.24;18.09;102274.28;5014365;28;20049;-67
2021/04/18 07:41:44;;;;;;;5.15;1.42;;;;;;;22.05;17.38;102275.50;5024943;28;20103;-67
2021/04/18 07:44:15;;;;;;;5.70;1.67;;;;;;;21.52;17.14;102266.59;5015458;28;20037;-67
2021/04/18 07:46:51;;;;;;;2.70;1.52;;;;;;;21.35;18.10;102271.19;5033171;28;20037;-66
2021/04/18 07:49:18;;;;;;;3.28;1.83;;;;;;;20.87;18.44;102265.34;5016789;28;20036;-67
2021/04/18 07:51:49;;;;;;;9.25;1.63;;;;;;;21.36;18.61;102267.56;5023207;28;20831;-69
2021/04/18 07:54:18;;;;;;;2.38;1.40;;;;;;;21.98;17.87;102267.09;5020668;28;20103;-69
2021/04/18 07:56:46;;;;;;;9.25;2.03;;;;;;;22.83;16.74;102266.66;5017012;28;20740;-68
2021/04/18 07:59:21;;;;;;;4.35;1.40;;;;;;;22.75;17.98;102269.00;5002495;28;20041;-67
2021/04/18 08:01:46;;;;;;;6.43;1.58;;;;;;;22.22;17.41;102270.88;5017027;28;20040;-69
2021/04/18 08:04:12;;;;;;;4.05;1.30;;;;;;;22.43;16.96;102257.88;5021258;28;20574;-68
2021/04/18 08:06:41;;;;;;;2.38;1.08;;;;;;;21.73;17.17;102265.19;5021763;28;20561;-69
2021/04/18 08:09:20;;;;;;;2.22;1.00;;;;;;;21.86;16.71;102269.69;5017393;28;20092;-68
2021/04/18 08:12:18;;;;;;;3.15;1.08;;;;;;;21.36;17.71;102266.72;5023545;28;20049;-70
2021/04/18 08:15:07;;;;;;;3.33;1.20;;;;;;;21.69;17.35;102269.03;5017066;28;21091;-69
2021/04/18 08:17:33;;;;;;;4.68;1.08;;;;;;;22.31;16.93;102255.13;5018319;28;20041;-68
2021/04/18 08:20:03;;;;;;;2.30;0.90;;;;;;;21.93;16.98;102257.69;5016765;28;20037;-68
2021/04/18 08:23:04;;;;;;;2.83;0.70;;;;;;;22.25;16.27;102255.56;5016776;28;20038;-68
2021/04/18 08:25:30;;;;;;;3.63;1.10;;;;;;;22.75;16.76;102258.34;5025478;28;20033;-68
2021/04/18 08:28:11;;;;;;;3.67;0.98;;;;;;;22.17;16.34;102263.19;5015036;28;20060;-69
2021/04/18 08:31:02;;;;;;;2.55;0.57;;;;;;;21.80;16.40;102254.13;5014510;28;20045;-68
2021/04/18 08:33:40;;;;;;;1.13;0.70;;;;;;;21.20;16.25;102256.22;5007781;28;20053;-68
2021/04/18 08:36:33;;;;;;;4.18;0.70;;;;;;;19.37;17.32;102252.84;5017230;28;20115;-66
2021/04/18 08:38:59;;;;;;;4.05;0.82;;;;;;;18.28;19.48;102251.56;5012065;28;20046;-68
2021/04/18 08:41:47;;;;;;;2.20;0.90;;;;;;;17.35;21.27;102264.88;5013647;28;20615;-67
2021/04/18 08:44:20;;;;;;;3.38;1.00;;;;;;;16.39;21.88;102255.03;5014604;28;20188;-66
2021/04/18 08:46:51;;;;;;;1.77;0.63;;;;;;;15.56;22.58;102267.16;5019924;28;20048;-66
2021/04/18 08:49:38;;;;;;;3.35;0.80;;;;;;;15.01;22.87;102263.09;5017008;28;20029;-68
2021/04/18 08:52:08;;;;;;;1.80;0.60;;;;;;;15.33;23.38;102272.47;5021506;28;20105;-66
2021/04/18 08:54:36;;;;;;;2.92;0.75;;;;;;;14.68;24.11;102268.66;5018944;28;20731;-68
2021/04/18 08:57:06;;;;;;;4.60;1.08;;;;;;;14.63;25.35;102267.97;5022202;28;20048;-67
2021/04/18 08:59:33;;;;;;;4.25;0.70;;;;;;;14.58;24.87;102270.75;5017199;28;20033;-67
2021/04/18 09:02:10;;;;;;;1.42;0.60;;;;;;;14.94;24.93;102268.59;5016350;28;20038;-68
2021/04/18 09:04:42;;;;;;;7.32;0.75;;;;;;;16.07;23.92;102262.53;5023795;28;20038;-67
2021/04/18 09:07:12;;;;;;;3.78;0.55;;;;;;;16.43;22.70;102259.25;5020500;28;20098;-70
2021/04/18 09:09:38;;;;;;;2.65;0.65;;;;;;;16.25;22.63;102260.91;5023593;28;20253;-66
2021/04/18 09:12:05;;;;;;;5.38;1.27;;;;;;;16.50;22.83;102259.84;5021466;28;20090;-67
2021/04/18 09:14:33;;;;;;;1.98;0.50;;;;;;;16.52;23.11;102258.88;5025823;28;20076;-69
2021/04/18 09:17:21;;;;;;;3.70;1.25;;;;;;;16.27;23.90;102256.44;5027550;28;20451;-69
2021/04/18 09:19:51;;;;;;;4.53;0.95;;;;;;;16.58;24.23;102253.31;5016633;28;20041;-68
2021/04/18 09:22:18;;;;;;;2.83;0.70;;;;;;;17.14;23.86;102259.66;5020513;28;20036;-68
2021/04/18 09:25:07;;;;;;;2.75;0.93;;;;;;;17.92;23.02;102259.53;5024920;28;20040;-66
2021/04/18 09:27:43;;;;;;;4.00;0.90;;;;;;;18.36;20.73;102259.94;5015944;28;20040;-69
2021/04/18 09:30:13;;;;;;;1.75;0.73;;;;;;;18.26;21.20;102242.84;5019518;28;20157;-67
2021/04/18 09:32:47;;;;;;;2.80;0.70;;;;;;;18.39;20.42;102248.38;5016717;28;20044;-67
2021/04/18 09:35:16;;;;;;;2.03;0.50;;;;;;;18.05;20.37;102248.28;5003569;28;20530;-67
2021/04/18 09:37:44;;;;;;;4.82;1.08;;;;;;;17.00;22.98;102252.38;5019215;28;20039;-68
2021/04/18 09:40:16;;;;;;;3.65;0.80;;;;;;;16.23;22.80;102254.84;5018293;28;20041;-66
2021/04/18 09:42:45;;;;;;;2.53;0.77;;;;;;;15.31;23.99;102259.34;5016078;28;20030;-67
2021/04/18 09:45:14;;;;;;;6.03;0.80;;;;;;;15.93;23.44;102255.16;5017347;28;20057;-67
2021/04/18 09:47:42;;;;;;;3.30;0.82;;;;;;;16.19;23.21;102255.88;5020700;28;20639;-68
2021/04/18 09:50:18;;;;;;;2.47;1.00;;;;;;;16.30;23.23;102245.72;5017913;28;20056;-66
2021/04/18 09:52:46;;;;;;;2.63;0.85;;;;;;;16.48;23.72;102248.50;5017389;28;20056;-66
2021/04/18 09:55:16;;;;;;;2.45;0.70;;;;;;;16.52;23.70;102244.81;5019121;28;20041;-67
2021/04/18 09:57:59;;;;;;;3.92;0.70;;;;;;;16.25;24.48;102236.31;5015850;28;20035;-67
2021/04/18 10:00:31;;;;;;;1.95;0.80;;;;;;;16.76;23.50;102238.50;5023510;28;20033;-67
2021/04/18 10:03:08;;;;;;;5.40;0.80;;;;;;;17.38;23.08;102240.94;5014884;28;20034;-67
2021/04/18 10:05:38;;;;;;;2.05;0.70;;;;;;;17.89;22.60;102239.38;5018571;28;20037;-67
2021/04/18 10:08:19;;;;;;;5.53;1.63;;;;;;;17.74;22.21;102240.13;5016473;28;20084;-68
2021/04/18 10:10:47;;;;;;;1.83;0.57;;;;;;;17.21;22.85;102242.59;5014792;28;20140;-67
2021/04/18 10:13:13;;;;;;;1.58;0.68;;;;;;;18.03;21.69;102238.72;5022284;28;20083;-67
2021/04/18 10:15:50;;;;;;;1.67;0.68;;;;;;;17.77;21.04;102243.47;5022457;28;20041;-69
2021/04/18 10:18:18;;;;;;;2.05;0.60;;;;;;;18.39;21.32;102240.44;5018040;28;20037;-68
2021/04/18 10:20:43;;;;;;;4.53;0.73;;;;;;;18.21;21.10;102245.72;5020193;23;20046;-64
2021/04/18 10:23:10;;;;;;;3.45;0.93;;;;;;;17.07;21.17;102238.88;4983664;28;20038;-64
2021/04/18 10:25:37;;;;;;;1.63;0.60;;;;;;;16.95;22.07;102245.56;4987702;28;20046;-62
2021/04/18 10:28:03;;;;;;;4.10;0.60;;;;;;;17.20;22.75;102235.59;4985192;28;20056;-62
2021/04/18 10:30:29;;;;;;;1.98;0.70;;;;;;;17.84;22.21;102242.25;4996723;28;20545;-63
2021/04/18 10:32:55;;;;;;;6.13;0.63;;;;;;;18.85;21.13;102232.69;4986790;28;20038;-61
2021/04/18 10:35:22;;;;;;;2.17;0.70;;;;;;;18.03;22.09;102244.84;4986296;28;20041;-62
2021/04/18 10:37:47;;;;;;;5.57;0.60;;;;;;;18.03;22.04;102242.19;4988494;28;20149;-62
2021/04/18 10:40:18;;;;;;;5.28;0.77;;;;;;;18.34;21.70;102240.69;4986902;28;20459;-63
2021/04/18 10:42:43;;;;;;;2.78;0.90;;;;;;;17.97;22.22;102242.50;4985425;28;20450;-63
2021/04/18 10:45:11;;;;;;;6.25;0.70;;;;;;;17.76;21.08;102239.13;4975735;28;20037;-64
2021/04/18 10:47:37;;;;;;;1.20;0.40;;;;;;;18.03;20.04;102236.91;4981877;28;20044;-66
2021/04/18 10:50:04;;;;;;;6.15;0.75;;;;;;;17.84;21.33;102231.66;4982300;28;21376;-66
2021/04/18 10:52:30;;;;;;;3.08;0.80;;;;;;;18.03;21.59;102230.78;4983698;28;20040;-67
2021/04/18 10:54:58;;;;;;;4.25;0.70;;;;;;;17.78;22.18;102217.88;4987040;28;20042;-66
2021/04/18 10:57:23;;;;;;;2.53;0.85;;;;;;;17.22;23.21;102222.31;4985656;28;20049;-65
2021/04/18 10:59:50;;;;;;;2.38;0.70;;;;;;;17.96;23.15;102224.94;4973931;28;20038;-66
2021/04/18 11:02:16;;;;;;;4.93;1.17;;;;;;;18.19;22.60;102215.00;4985149;28;20478;-67
2021/04/18 11:04:42;;;;;;;2.72;0.82;;;;;;;18.01;22.39;102212.31;4983867;28;20069;-67
2021/04/18 11:07:08;;;;;;;5.43;0.70;;;;;;;18.15;22.81;102218.69;4973290;28;20085;-66
2021/04/18 11:09:35;;;;;;;4.22;1.48;;;;;;;18.63;23.09;102209.16;5001878;28;20018;-66
2021/04/18 11:12:12;;;;;;;2.28;1.45;;;;;;;18.40;21.88;102208.56;5000067;28;20281;-67
2021/04/18 11:14:37;;;;;;;5.10;1.33;;;;;;;18.03;22.47;102204.31;4993125;28;20038;-67
2021/04/18 11:17:02;;;;;;;1.92;0.95;;;;;;;17.76;22.87;102209.16;5002465;28;20045;-68
2021/04/18 11:19:28;;;;;;;2.90;1.05;;;;;;;17.47;22.82;102206.16;4996039;28;20030;-66
2021/04/18 11:21:54;;;;;;;2.22;1.10;;;;;;;17.49;22.92;102206.94;5000414;28;20042;-68
2021/04/18 11:24:19;;;;;;;6.72;1.05;;;;;;;17.51;22.40;102204.25;4993315;28;20053;-67
2021/04/18 11:26:44;;;;;;;2.42;1.30;;;;;;;17.18;23.37;102199.59;4993053;28;20076;-66
2021/04/18 11:29:10;;;;;;;2.80;0.90;;;;;;;17.77;23.17;102205.63;5002295;28;20326;-66
2021/04/18 11:31:35;;;;;;;3.42;1.42;;;;;;;17.90;22.61;102206.72;5006789;28;20033;-67
2021/04/18 11:34:03;;;;;;;3.95;0.90;;;;;;;17.72;22.94;102194.41;4999315;28;20063;-67
2021/04/18 11:36:29;;;;;;;2.40;1.25;;;;;;;17.80;22.20;102194.88;4998928;28;20059;-66